createdAt,value
2018-03-18T00:07:14.727Z,0
2018-03-18T00:17:14.689Z,0
2018-03-18T00:27:14.709Z,0
2018-03-18T00:37:14.619Z,0
2018-03-18T00:47:14.620Z,0
2018-03-18T00:57:14.664Z,0
2018-03-18T01:07:14.634Z,0
2018-03-18T01:17:14.709Z,0
2018-03-18T01:27:14.725Z,0
2018-03-18T01:37:14.731Z,0
2018-03-18T01:47:14.690Z,0
2018-03-18T01:57:14.725Z,0
2018-03-18T02:07:14.701Z,0
2018-03-18T02:17:14.615Z,0
2018-03-18T02:27:14.733Z,0
2018-03-18T02:37:14.730Z,0
2018-03-18T02:47:14.755Z,0
2018-03-18T02:57:14.709Z,0
2018-03-18T03:07:14.785Z,0
2018-03-18T03:17:14.766Z,0
2018-03-18T03:27:14.741Z,0
2018-03-18T03:37:15.034Z,0
2018-03-18T03:47:14.724Z,0
2018-03-18T03:57:14.833Z,0
2018-03-18T04:07:14.666Z,0
2018-03-18T04:17:14.760Z,0
2018-03-18T04:27:14.727Z,0
2018-03-18T04:37:14.830Z,0
2018-03-18T04:47:14.835Z,0
2018-03-18T04:57:14.766Z,0
2018-03-18T05:07:14.851Z,0
2018-03-18T05:17:14.838Z,0
2018-03-18T05:27:14.802Z,0
2018-03-18T05:37:14.779Z,0
2018-03-18T05:47:14.884Z,5
2018-03-18T05:57:14.860Z,15
2018-03-18T06:07:14.860Z,25
2018-03-18T06:17:14.881Z,35
2018-03-18T06:27:14.892Z,50
2018-03-18T06:37:14.867Z,70
2018-03-18T06:47:14.809Z,80
2018-03-18T06:57:14.891Z,85
2018-03-18T07:07:14.829Z,90
2018-03-18T07:17:14.917Z,100
2018-03-18T07:27:14.946Z,110
2018-03-18T07:37:15.191Z,110
2018-03-18T07:47:14.901Z,115
2018-03-18T07:57:15.003Z,125
2018-03-18T08:07:14.918Z,130
2018-03-18T08:17:14.876Z,145
2018-03-18T08:27:14.898Z,145
2018-03-18T08:37:14.857Z,160
2018-03-18T08:47:14.934Z,175
2018-03-18T08:57:14.889Z,185
2018-03-18T09:07:15.002Z,185
2018-03-18T09:17:14.983Z,190
2018-03-18T09:27:15.038Z,195
2018-03-18T09:37:23.967Z,210
2018-03-18T09:47:15.136Z,230
2018-03-18T09:57:14.950Z,240
2018-03-18T10:07:15.058Z,240
2018-03-18T10:17:15.043Z,225
2018-03-18T10:27:15.194Z,220
2018-03-18T10:37:15.111Z,200
2018-03-18T10:47:24.392Z,195
2018-03-18T10:57:15.125Z,210
2018-03-18T11:07:15.123Z,210
2018-03-18T11:17:15.353Z,210
2018-03-18T11:27:15.099Z,175
2018-03-18T11:37:15.066Z,145
2018-03-18T11:47:15.127Z,135
2018-03-18T11:57:15.175Z,135
2018-03-18T12:07:15.093Z,135
2018-03-18T12:17:15.583Z,135
2018-03-18T12:27:15.201Z,125
2018-03-18T12:37:15.097Z,125
2018-03-18T12:47:15.155Z,125
2018-03-18T12:57:15.190Z,125
2018-03-18T13:07:15.221Z,125
2018-03-18T13:17:15.113Z,125
2018-03-18T13:27:15.197Z,135
2018-03-18T13:37:15.155Z,135
2018-03-18T13:47:15.329Z,130
2018-03-18T13:57:15.552Z,125
2018-03-18T14:07:15.172Z,120
2018-03-18T14:17:15.253Z,120
2018-03-18T14:27:15.173Z,120
2018-03-18T14:37:15.226Z,115
2018-03-18T14:47:15.365Z,115
2018-03-18T14:57:15.622Z,110
2018-03-18T15:07:15.206Z,105
2018-03-18T15:17:15.291Z,105
2018-03-18T15:27:15.330Z,105
2018-03-18T15:37:15.285Z,100
2018-03-18T15:47:15.798Z,100
2018-03-18T15:57:15.291Z,100
2018-03-18T16:07:15.189Z,100
2018-03-18T16:17:15.303Z,85
2018-03-18T16:27:15.235Z,70
2018-03-18T16:37:15.300Z,55
2018-03-18T16:47:15.331Z,45
2018-03-18T16:57:15.361Z,40
2018-03-18T17:07:15.361Z,25
2018-03-18T17:17:15.338Z,15
2018-03-18T17:27:15.290Z,5
2018-03-18T17:37:15.474Z,0
2018-03-18T17:47:15.594Z,0
2018-03-18T17:57:15.306Z,0
2018-03-18T18:07:15.359Z,0
2018-03-18T18:17:15.385Z,0
2018-03-18T18:27:15.392Z,0
2018-03-18T18:37:15.462Z,0
2018-03-18T18:47:16.345Z,0
2018-03-18T18:57:15.530Z,0
2018-03-18T19:07:15.456Z,0
2018-03-18T19:17:15.492Z,0
2018-03-18T19:27:16.077Z,0
2018-03-18T19:37:15.590Z,0
2018-03-18T19:47:15.356Z,0
2018-03-18T19:57:15.493Z,0
2018-03-18T20:07:15.500Z,0
2018-03-18T20:17:15.735Z,0
2018-03-18T20:27:15.680Z,0
2018-03-18T20:37:15.595Z,0
2018-03-18T20:47:15.648Z,0
2018-03-18T20:57:15.690Z,0
2018-03-18T21:07:15.582Z,0
2018-03-18T21:17:16.362Z,0
2018-03-18T21:27:15.546Z,0
2018-03-18T21:37:16.355Z,0
2018-03-18T21:47:15.611Z,0
2018-03-18T21:57:15.430Z,0
2018-03-18T22:07:15.540Z,0
2018-03-18T22:17:15.639Z,0
2018-03-18T22:27:15.518Z,0
2018-03-18T22:37:15.589Z,0
2018-03-18T22:47:15.743Z,0
2018-03-18T22:57:15.520Z,0
2018-03-18T23:08:43.974Z,0
2018-03-18T23:18:44.176Z,0
2018-03-18T23:28:44.112Z,0
2018-03-18T23:38:45.002Z,0
2018-03-18T23:48:44.313Z,0
2018-03-18T23:58:44.235Z,0
